KDRA/DRA METAR and TAF weather

Enter ICAO airport designator
Station Type Date Time Source
KDRA METAR 2019/08/22 01:53 UTC NOAA

KDRA 220153Z AUTO 22013KT 10SM CLR 36/M11 A2982 RMK AO2 SLP045 T03611106


Station Type Date Time Source
KDRA Decoded METAR 2019/08/22 01:53 UTC NOAA

Station name not available
Aug 21, 2019 - 09:53 PM EDT / 2019.08.22 0153 UTC
Wind: from the SW (220 degrees) at 15 MPH (13 KT):0
Visibility: 10 mile(s):0
Sky conditions: clear
Temperature: 97.0 F (36.1 C)
Dew Point: 12.9 F (-10.6 C)
Relative Humidity: 4%
Pressure (altimeter): 29.82 in. Hg (1009 hPa)
ob: KDRA 220153Z AUTO 22013KT 10SM CLR 36/M11 A2982 RMK AO2 SLP045 T03611106
cycle: 2

Station Type Date Time Source
KDRA TAF 2011/12/07 06:36 UTC NOAA

TAF KDRA 070532Z 0706/0806 VRB04KT P6SM SKC

Example: see airport list